KAUM/AUM METAR and TAF weather

Enter ICAO airport designator
Station Type Date Time Source
KAUM METAR 2019/06/26 17:55 UTC NOAA

KAUM 261755Z AUTO 22003KT 10SM CLR 28/08 A3006 RMK AO2


Station Type Date Time Source
KAUM Decoded METAR 2019/06/26 17:55 UTC NOAA

Austin Municipal, MN, United States (KAUM) 43-40N 092-56W
Jun 26, 2019 - 01:55 PM EDT / 2019.06.26 1755 UTC
Wind: from the SW (220 degrees) at 3 MPH (3 KT):0
Visibility: 10 mile(s):0
Sky conditions: clear
Temperature: 82 F (28 C)
Dew Point: 46 F (8 C)
Relative Humidity: 28%
Pressure (altimeter): 30.06 in. Hg (1017 hPa)
ob: KAUM 261755Z AUTO 22003KT 10SM CLR 28/08 A3006 RMK AO2
cycle: 18

Station Type Date Time Source
KAUM TAF UTC NOAA

Error!

Example: see airport list